sensor_id;sensor_type;location;lat;lon;timestamp;pressure;altitude;pressure_sealevel;temperature;humidity
11523;BME280;40093;43.224;27.910;2022-11-02T00:00:24;100999.09;;;15.20;100.00
11523;BME280;40093;43.224;27.910;2022-11-02T00:02:52;101009.38;;;15.09;100.00
11523;BME280;40093;43.224;27.910;2022-11-02T00:05:18;101000.63;;;14.93;100.00
11523;BME280;40093;43.224;27.910;2022-11-02T00:07:49;100998.25;;;14.75;100.00
11523;BME280;40093;43.224;27.910;2022-11-02T00:10:17;100998.19;;;14.61;100.00
11523;BME280;40093;43.224;27.910;2022-11-02T00:12:45;101002.94;;;14.60;100.00
11523;BME280;40093;43.224;27.910;2022-11-02T00:15:13;100985.91;;;14.62;100.00
11523;BME280;40093;43.224;27.910;2022-11-02T00:17:42;100999.41;;;14.74;100.00
11523;BME280;40093;43.224;27.910;2022-11-02T00:20:11;100992.31;;;14.87;100.00
11523;BME280;40093;43.224;27.910;2022-11-02T00:22:40;100984.00;;;14.87;100.00
11523;BME280;40093;43.224;27.910;2022-11-02T00:25:09;100981.63;;;14.95;100.00
11523;BME280;40093;43.224;27.910;2022-11-02T00:27:39;100977.69;;;14.97;100.00
11523;BME280;40093;43.224;27.910;2022-11-02T00:30:09;100981.28;;;15.04;100.00
11523;BME280;40093;43.224;27.910;2022-11-02T00:32:36;100974.50;;;14.98;100.00
11523;BME280;40093;43.224;27.910;2022-11-02T00:35:04;100975.28;;;14.85;100.00
11523;BME280;40093;43.224;27.910;2022-11-02T00:37:31;100975.69;;;14.90;100.00
11523;BME280;40093;43.224;27.910;2022-11-02T00:39:57;100969.75;;;14.78;100.00
11523;BME280;40093;43.224;27.910;2022-11-02T00:42:24;100965.78;;;14.89;100.00
11523;BME280;40093;43.224;27.910;2022-11-02T00:44:51;100965.00;;;14.95;100.00
11523;BME280;40093;43.224;27.910;2022-11-02T00:47:19;100962.25;;;14.99;100.00
11523;BME280;40093;43.224;27.910;2022-11-02T00:49:46;100960.25;;;14.93;100.00
11523;BME280;40093;43.224;27.910;2022-11-02T00:52:13;100949.16;;;14.93;100.00
11523;BME280;40093;43.224;27.910;2022-11-02T00:54:40;100953.94;;;15.02;100.00
11523;BME280;40093;43.224;27.910;2022-11-02T00:57:07;100949.97;;;15.03;100.00
11523;BME280;40093;43.224;27.910;2022-11-02T00:59:34;100950.00;;;15.10;100.00
11523;BME280;40093;43.224;27.910;2022-11-02T01:02:00;100949.59;;;15.01;100.00
11523;BME280;40093;43.224;27.910;2022-11-02T01:04:29;100955.50;;;14.76;100.00
11523;BME280;40093;43.224;27.910;2022-11-02T01:06:55;100948.38;;;14.82;100.00
11523;BME280;40093;43.224;27.910;2022-11-02T01:09:22;100941.25;;;14.81;100.00
11523;BME280;40093;43.224;27.910;2022-11-02T01:11:49;100942.84;;;14.89;100.00
11523;BME280;40093;43.224;27.910;2022-11-02T01:14:17;100946.78;;;14.81;100.00
11523;BME280;40093;43.224;27.910;2022-11-02T01:16:44;100933.72;;;14.85;100.00
11523;BME280;40093;43.224;27.910;2022-11-02T01:19:10;100938.88;;;14.86;100.00
11523;BME280;40093;43.224;27.910;2022-11-02T01:21:39;100925.41;;;14.85;100.00
11523;BME280;40093;43.224;27.910;2022-11-02T01:24:07;100933.31;;;14.83;100.00
11523;BME280;40093;43.224;27.910;2022-11-02T01:26:34;100930.97;;;14.81;100.00
11523;BME280;40093;43.224;27.910;2022-11-02T01:29:00;100927.00;;;14.79;100.00
11523;BME280;40093;43.224;27.910;2022-11-02T01:31:27;100925.41;;;14.78;100.00
11523;BME280;40093;43.224;27.910;2022-11-02T01:33:54;100923.03;;;14.76;100.00
11523;BME280;40093;43.224;27.910;2022-11-02T01:36:21;100915.13;;;14.75;100.00
11523;BME280;40093;43.224;27.910;2022-11-02T01:38:49;100920.66;;;14.75;100.00
11523;BME280;40093;43.224;27.910;2022-11-02T01:41:16;100919.47;;;14.76;100.00
11523;BME280;40093;43.224;27.910;2022-11-02T01:43:44;100909.19;;;14.69;100.00
11523;BME280;40093;43.224;27.910;2022-11-02T01:46:16;100906.00;;;14.71;100.00
11523;BME280;40093;43.224;27.910;2022-11-02T01:48:46;100901.25;;;14.71;100.00
11523;BME280;40093;43.224;27.910;2022-11-02T01:51:17;100903.22;;;14.71;100.00
11523;BME280;40093;43.224;27.910;2022-11-02T01:53:50;100896.50;;;14.68;100.00
11523;BME280;40093;43.224;27.910;2022-11-02T01:56:20;100900.84;;;14.66;100.00
11523;BME280;40093;43.224;27.910;2022-11-02T01:58:53;100897.66;;;14.64;100.00
11523;BME280;40093;43.224;27.910;2022-11-02T02:01:20;100890.53;;;14.63;100.00
11523;BME280;40093;43.224;27.910;2022-11-02T02:03:48;100889.75;;;14.59;100.00
11523;BME280;40093;43.224;27.910;2022-11-02T02:06:15;100890.94;;;14.58;100.00
11523;BME280;40093;43.224;27.910;2022-11-02T02:08:46;100886.19;;;14.55;100.00
11523;BME280;40093;43.224;27.910;2022-11-02T02:11:26;100889.72;;;14.52;100.00
11523;BME280;40093;43.224;27.910;2022-11-02T02:13:54;100885.78;;;14.49;100.00
11523;BME280;40093;43.224;27.910;2022-11-02T02:16:33;100892.91;;;14.47;100.00
11523;BME280;40093;43.224;27.910;2022-11-02T02:19:05;100886.16;;;14.44;100.00
11523;BME280;40093;43.224;27.910;2022-11-02T02:21:41;100891.28;;;14.39;100.00
11523;BME280;40093;43.224;27.910;2022-11-02T02:24:27;100892.88;;;14.40;100.00
11523;BME280;40093;43.224;27.910;2022-11-02T02:27:12;100887.31;;;14.36;100.00
11523;BME280;40093;43.224;27.910;2022-11-02T02:29:50;100886.53;;;14.32;100.00
11523;BME280;40093;43.224;27.910;2022-11-02T02:32:24;100888.91;;;14.34;100.00
11523;BME280;40093;43.224;27.910;2022-11-02T02:34:53;100881.81;;;14.33;100.00
11523;BME280;40093;43.224;27.910;2022-11-02T02:37:26;100884.16;;;14.24;100.00
11523;BME280;40093;43.224;27.910;2022-11-02T02:40:01;100877.03;;;14.23;100.00
11523;BME280;40093;43.224;27.910;2022-11-02T02:42:31;100882.56;;;14.23;100.00
11523;BME280;40093;43.224;27.910;2022-11-02T02:45:07;100880.19;;;14.25;100.00
11523;BME280;40093;43.224;27.910;2022-11-02T02:47:41;100883.31;;;14.20;100.00
11523;BME280;40093;43.224;27.910;2022-11-02T02:50:13;100882.50;;;14.16;100.00
11523;BME280;40093;43.224;27.910;2022-11-02T02:52:43;100881.66;;;14.05;100.00
11523;BME280;40093;43.224;27.910;2022-11-02T02:55:15;100881.66;;;14.05;100.00
11523;BME280;40093;43.224;27.910;2022-11-02T02:57:44;100880.84;;;13.94;100.00
11523;BME280;40093;43.224;27.910;2022-11-02T03:00:16;100878.47;;;13.96;100.00
11523;BME280;40093;43.224;27.910;2022-11-02T03:02:44;100879.25;;;13.93;100.00
11523;BME280;40093;43.224;27.910;2022-11-02T03:05:28;100878.41;;;13.82;100.00
11523;BME280;40093;43.224;27.910;2022-11-02T03:07:59;100874.38;;;13.65;100.00
11523;BME280;40093;43.224;27.910;2022-11-02T03:10:31;100870.38;;;13.59;100.00
11523;BME280;40093;43.224;27.910;2022-11-02T03:13:09;100871.44;;;13.37;100.00
11523;BME280;40093;43.224;27.910;2022-11-02T03:15:45;100869.06;;;13.36;100.00
11523;BME280;40093;43.224;27.910;2022-11-02T03:18:18;100868.25;;;13.32;100.00
11523;BME280;40093;43.224;27.910;2022-11-02T03:20:59;100860.75;;;13.29;100.00
11523;BME280;40093;43.224;27.910;2022-11-02T03:23:34;100856.41;;;13.35;100.00
11523;BME280;40093;43.224;27.910;2022-11-02T03:26:07;100855.63;;;13.31;100.00
11523;BME280;40093;43.224;27.910;2022-11-02T03:28:48;100848.88;;;13.28;100.00
11523;BME280;40093;43.224;27.910;2022-11-02T03:31:25;100842.88;;;13.12;100.00
11523;BME280;40093;43.224;27.910;2022-11-02T03:34:01;100847.91;;;13.00;100.00
11523;BME280;40093;43.224;27.910;2022-11-02T03:36:31;100843.81;;;12.87;100.00
11523;BME280;40093;43.224;27.910;2022-11-02T03:39:04;100844.56;;;12.80;100.00
11523;BME280;40093;43.224;27.910;2022-11-02T03:41:32;100840.16;;;12.72;100.00
11523;BME280;40093;43.224;27.910;2022-11-02T03:44:05;100841.34;;;12.71;100.00
11523;BME280;40093;43.224;27.910;2022-11-02T03:46:36;100838.13;;;12.66;100.00
11523;BME280;40093;43.224;27.910;2022-11-02T03:49:07;100838.81;;;12.56;100.00
11523;BME280;40093;43.224;27.910;2022-11-02T03:51:39;100830.03;;;12.43;100.00
11523;BME280;40093;43.224;27.910;2022-11-02T03:54:10;100824.53;;;12.47;100.00
11523;BME280;40093;43.224;27.910;2022-11-02T03:56:41;100831.69;;;12.51;100.00
11523;BME280;40093;43.224;27.910;2022-11-02T03:59:10;100827.66;;;12.42;100.00
11523;BME280;40093;43.224;27.910;2022-11-02T04:01:41;100812.66;;;12.39;100.00
11523;BME280;40093;43.224;27.910;2022-11-02T04:04:08;100824.63;;;12.54;100.00
11523;BME280;40093;43.224;27.910;2022-11-02T04:06:36;100826.81;;;12.38;100.00
11523;BME280;40093;43.224;27.910;2022-11-02T04:09:03;100826.03;;;12.38;100.00
11523;BME280;40093;43.224;27.910;2022-11-02T04:11:31;100826.78;;;12.34;100.00
11523;BME280;40093;43.224;27.910;2022-11-02T04:14:15;100825.22;;;12.37;100.00
11523;BME280;40093;43.224;27.910;2022-11-02T04:17:01;100831.59;;;12.41;100.00
11523;BME280;40093;43.224;27.910;2022-11-02T04:19:44;100817.41;;;12.42;100.00
11523;BME280;40093;43.224;27.910;2022-11-02T04:22:11;100815.94;;;12.52;100.00
11523;BME280;40093;43.224;27.910;2022-11-02T04:24:56;100815.94;;;12.52;100.00
11523;BME280;40093;43.224;27.910;2022-11-02T04:27:40;100811.16;;;12.49;100.00
11523;BME280;40093;43.224;27.910;2022-11-02T04:30:07;100811.94;;;12.49;100.00
11523;BME280;40093;43.224;27.910;2022-11-02T04:32:38;100810.66;;;12.40;100.00
11523;BME280;40093;43.224;27.910;2022-11-02T04:35:22;100804.69;;;12.31;100.00
11523;BME280;40093;43.224;27.910;2022-11-02T04:37:49;100814.16;;;12.33;100.00
11523;BME280;40093;43.224;27.910;2022-11-02T04:40:34;100808.53;;;12.23;100.00
11523;BME280;40093;43.224;27.910;2022-11-02T04:43:00;100807.81;;;12.30;100.00
11523;BME280;40093;43.224;27.910;2022-11-02T04:45:27;100814.59;;;12.39;100.00
11523;BME280;40093;43.224;27.910;2022-11-02T04:48:00;100809.63;;;12.55;100.00
11523;BME280;40093;43.224;27.910;2022-11-02T04:50:27;100807.72;;;12.62;100.00
11523;BME280;40093;43.224;27.910;2022-11-02T04:52:55;100817.19;;;12.61;100.00
11523;BME280;40093;43.224;27.910;2022-11-02T04:55:22;100819.09;;;12.54;100.00
11523;BME280;40093;43.224;27.910;2022-11-02T04:57:49;100819.88;;;12.54;100.00
11523;BME280;40093;43.224;27.910;2022-11-02T05:00:17;100819.88;;;12.51;100.00
11523;BME280;40093;43.224;27.910;2022-11-02T05:02:45;100817.34;;;12.39;100.00
11523;BME280;40093;43.224;27.910;2022-11-02T05:05:15;100821.22;;;12.28;100.00
11523;BME280;40093;43.224;27.910;2022-11-02T05:07:42;100815.72;;;12.31;100.00
11523;BME280;40093;43.224;27.910;2022-11-02T05:10:09;100819.78;;;12.44;100.00
11523;BME280;40093;43.224;27.910;2022-11-02T05:12:39;100827.31;;;12.47;100.00
11523;BME280;40093;43.224;27.910;2022-11-02T05:15:07;100822.06;;;12.35;100.00
11523;BME280;40093;43.224;27.910;2022-11-02T05:17:34;100831.16;;;12.36;100.00
11523;BME280;40093;43.224;27.910;2022-11-02T05:20:02;100831.44;;;12.27;100.00
11523;BME280;40093;43.224;27.910;2022-11-02T05:22:31;100836.00;;;12.13;100.00
11523;BME280;40093;43.224;27.910;2022-11-02T05:24:57;100831.72;;;12.15;100.00
11523;BME280;40093;43.224;27.910;2022-11-02T05:27:24;100840.66;;;12.05;100.00
11523;BME280;40093;43.224;27.910;2022-11-02T05:29:51;100845.09;;;12.13;100.00
11523;BME280;40093;43.224;27.910;2022-11-02T05:32:18;100847.84;;;12.13;100.00
11523;BME280;40093;43.224;27.910;2022-11-02T05:34:45;100840.84;;;12.19;100.00
11523;BME280;40093;43.224;27.910;2022-11-02T05:37:11;100841.97;;;12.18;100.00
11523;BME280;40093;43.224;27.910;2022-11-02T05:39:40;100839.09;;;12.44;100.00
11523;BME280;40093;43.224;27.910;2022-11-02T05:42:07;100839.72;;;12.67;100.00
11523;BME280;40093;43.224;27.910;2022-11-02T05:44:33;100848.94;;;12.85;100.00
11523;BME280;40093;43.224;27.910;2022-11-02T05:47:01;100844.78;;;13.05;100.00
11523;BME280;40093;43.224;27.910;2022-11-02T05:49:28;100848.13;;;13.31;100.00
11523;BME280;40093;43.224;27.910;2022-11-02T05:51:55;100857.72;;;13.55;100.00
11523;BME280;40093;43.224;27.910;2022-11-02T05:54:22;100852.31;;;13.79;100.00
11523;BME280;40093;43.224;27.910;2022-11-02T05:56:50;100848.47;;;14.05;100.00
11523;BME280;40093;43.224;27.910;2022-11-02T05:59:17;100848.19;;;14.27;100.00
11523;BME280;40093;43.224;27.910;2022-11-02T06:01:44;100856.09;;;14.46;100.00
11523;BME280;40093;43.224;27.910;2022-11-02T06:04:10;100858.91;;;14.74;100.00
11523;BME280;40093;43.224;27.910;2022-11-02T06:06:37;100858.09;;;14.94;100.00
11523;BME280;40093;43.224;27.910;2022-11-02T06:09:04;100856.13;;;15.12;100.00
11523;BME280;40093;43.224;27.910;2022-11-02T06:11:31;100855.34;;;15.08;100.00
11523;BME280;40093;43.224;27.910;2022-11-02T06:13:59;100858.13;;;15.33;100.00
11523;BME280;40093;43.224;27.910;2022-11-02T06:16:28;100854.94;;;15.41;100.00
11523;BME280;40093;43.224;27.910;2022-11-02T06:18:55;100850.91;;;15.70;100.00
11523;BME280;40093;43.224;27.910;2022-11-02T06:21:22;100862.69;;;15.95;100.00
11523;BME280;40093;43.224;27.910;2022-11-02T06:23:49;100859.50;;;15.97;100.00
11523;BME280;40093;43.224;27.910;2022-11-02T06:26:16;100863.81;;;16.08;100.00
11523;BME280;40093;43.224;27.910;2022-11-02T06:28:43;100875.97;;;16.35;100.00
11523;BME280;40093;43.224;27.910;2022-11-02T06:31:11;100858.03;;;16.50;100.00
11523;BME280;40093;43.224;27.910;2022-11-02T06:33:41;100867.63;;;16.35;100.00
11523;BME280;40093;43.224;27.910;2022-11-02T06:36:08;100865.53;;;16.57;100.00
11523;BME280;40093;43.224;27.910;2022-11-02T06:38:35;100870.19;;;16.74;100.00
11523;BME280;40093;43.224;27.910;2022-11-02T06:41:03;100870.81;;;16.92;100.00
11523;BME280;40093;43.224;27.910;2022-11-02T06:43:31;100869.59;;;16.96;100.00
11523;BME280;40093;43.224;27.910;2022-11-02T06:45:58;100869.69;;;17.30;100.00
11523;BME280;40093;43.224;27.910;2022-11-02T06:48:26;100870.59;;;17.60;100.00
11523;BME280;40093;43.224;27.910;2022-11-02T06:50:53;100879.53;;;17.78;100.00
11523;BME280;40093;43.224;27.910;2022-11-02T06:53:20;100877.06;;;17.87;100.00
11523;BME280;40093;43.224;27.910;2022-11-02T06:55:50;100879.25;;;18.02;100.00
11523;BME280;40093;43.224;27.910;2022-11-02T06:58:18;100869.94;;;18.16;100.00
11523;BME280;40093;43.224;27.910;2022-11-02T07:00:45;100867.19;;;18.12;100.00
11523;BME280;40093;43.224;27.910;2022-11-02T07:03:12;100867.06;;;18.19;100.00
11523;BME280;40093;43.224;27.910;2022-11-02T07:05:40;100872.13;;;18.31;100.00
11523;BME280;40093;43.224;27.910;2022-11-02T07:08:07;100866.78;;;18.44;100.00
11523;BME280;40093;43.224;27.910;2022-11-02T07:10:34;100866.72;;;18.47;100.00
11523;BME280;40093;43.224;27.910;2022-11-02T07:13:01;100865.41;;;18.29;100.00
11523;BME280;40093;43.224;27.910;2022-11-02T07:15:28;100863.38;;;18.29;100.00
11523;BME280;40093;43.224;27.910;2022-11-02T07:17:55;100871.63;;;18.40;100.00
11523;BME280;40093;43.224;27.910;2022-11-02T07:20:21;100864.56;;;18.32;100.00
11523;BME280;40093;43.224;27.910;2022-11-02T07:22:54;100862.72;;;18.48;100.00
11523;BME280;40093;43.224;27.910;2022-11-02T07:25:23;100859.66;;;18.66;100.00
11523;BME280;40093;43.224;27.910;2022-11-02T07:27:51;100869.50;;;18.74;100.00
11523;BME280;40093;43.224;27.910;2022-11-02T07:30:18;100864.91;;;19.10;100.00
11523;BME280;40093;43.224;27.910;2022-11-02T07:32:45;100857.91;;;19.25;100.00
11523;BME280;40093;43.224;27.910;2022-11-02T07:35:13;100860.91;;;19.11;100.00
11523;BME280;40093;43.224;27.910;2022-11-02T07:37:40;100856.06;;;19.18;100.00
11523;BME280;40093;43.224;27.910;2022-11-02T07:40:11;100849.75;;;19.11;100.00
11523;BME280;40093;43.224;27.910;2022-11-02T07:42:42;100852.94;;;19.36;100.00
11523;BME280;40093;43.224;27.910;2022-11-02T07:45:09;100848.00;;;19.43;100.00
11523;BME280;40093;43.224;27.910;2022-11-02T07:47:40;100856.34;;;19.24;100.00
11523;BME280;40093;43.224;27.910;2022-11-02T07:50:09;100838.25;;;19.32;100.00
11523;BME280;40093;43.224;27.910;2022-11-02T07:52:42;100843.06;;;19.51;100.00
11523;BME280;40093;43.224;27.910;2022-11-02T07:55:11;100840.91;;;19.39;100.00
11523;BME280;40093;43.224;27.910;2022-11-02T07:57:38;100847.31;;;19.59;100.00
11523;BME280;40093;43.224;27.910;2022-11-02T08:00:06;100843.44;;;19.53;100.00
11523;BME280;40093;43.224;27.910;2022-11-02T08:02:33;100830.13;;;19.80;100.00
11523;BME280;40093;43.224;27.910;2022-11-02T08:05:00;100837.66;;;20.02;100.00
11523;BME280;40093;43.224;27.910;2022-11-02T08:07:26;100819.41;;;20.33;100.00
11523;BME280;40093;43.224;27.910;2022-11-02T08:09:53;100824.84;;;20.40;100.00
11523;BME280;40093;43.224;27.910;2022-11-02T08:12:22;100820.13;;;20.37;100.00
11523;BME280;40093;43.224;27.910;2022-11-02T08:14:49;100818.69;;;20.29;100.00
11523;BME280;40093;43.224;27.910;2022-11-02T08:17:16;100822.75;;;20.09;100.00
11523;BME280;40093;43.224;27.910;2022-11-02T08:19:43;100820.34;;;20.27;100.00
11523;BME280;40093;43.224;27.910;2022-11-02T08:22:09;100818.53;;;20.36;100.00
11523;BME280;40093;43.224;27.910;2022-11-02T08:24:36;100823.25;;;20.39;100.00
11523;BME280;40093;43.224;27.910;2022-11-02T08:27:03;100809.22;;;20.58;100.00
11523;BME280;40093;43.224;27.910;2022-11-02T08:29:31;100807.41;;;21.00;100.00
11523;BME280;40093;43.224;27.910;2022-11-02T08:31:59;100802.81;;;21.22;100.00
11523;BME280;40093;43.224;27.910;2022-11-02T08:34:26;100796.06;;;21.35;82.28
11523;BME280;40093;43.224;27.910;2022-11-02T08:36:53;100796.09;;;21.19;78.99
11523;BME280;40093;43.224;27.910;2022-11-02T08:39:20;100798.03;;;21.06;79.34
11523;BME280;40093;43.224;27.910;2022-11-02T08:41:47;100787.00;;;21.15;78.74
11523;BME280;40093;43.224;27.910;2022-11-02T08:44:14;100792.06;;;21.20;77.88
11523;BME280;40093;43.224;27.910;2022-11-02T08:46:42;100785.13;;;21.25;77.53
11523;BME280;40093;43.224;27.910;2022-11-02T08:49:09;100783.63;;;21.36;76.43
11523;BME280;40093;43.224;27.910;2022-11-02T08:51:36;100781.41;;;21.15;76.41
11523;BME280;40093;43.224;27.910;2022-11-02T08:54:03;100785.03;;;21.28;76.46
11523;BME280;40093;43.224;27.910;2022-11-02T08:56:30;100779.53;;;21.53;75.06
11523;BME280;40093;43.224;27.910;2022-11-02T08:58:57;100784.28;;;21.56;74.08
11523;BME280;40093;43.224;27.910;2022-11-02T09:01:23;100774.50;;;21.61;74.18
11523;BME280;40093;43.224;27.910;2022-11-02T09:03:52;100782.56;;;21.59;73.81
11523;BME280;40093;43.224;27.910;2022-11-02T09:06:19;100781.41;;;21.72;74.07
11523;BME280;40093;43.224;27.910;2022-11-02T09:08:45;100771.72;;;22.02;73.51
11523;BME280;40093;43.224;27.910;2022-11-02T09:11:12;100769.72;;;22.15;71.94
11523;BME280;40093;43.224;27.910;2022-11-02T09:13:39;100773.09;;;22.22;71.97
11523;BME280;40093;43.224;27.910;2022-11-02T09:16:07;100766.25;;;22.23;71.74
11523;BME280;40093;43.224;27.910;2022-11-02T09:18:33;100762.75;;;22.07;72.17
11523;BME280;40093;43.224;27.910;2022-11-02T09:21:02;100758.81;;;22.29;71.23
11523;BME280;40093;43.224;27.910;2022-11-02T09:23:30;100758.06;;;22.29;70.74
11523;BME280;40093;43.224;27.910;2022-11-02T09:25:57;100760.06;;;22.28;70.40
11523;BME280;40093;43.224;27.910;2022-11-02T09:28:24;100748.88;;;22.16;69.61
11523;BME280;40093;43.224;27.910;2022-11-02T09:30:51;100741.56;;;21.93;70.34
11523;BME280;40093;43.224;27.910;2022-11-02T09:33:18;100731.69;;;22.01;70.18
11523;BME280;40093;43.224;27.910;2022-11-02T09:35:47;100736.63;;;22.10;69.86
11523;BME280;40093;43.224;27.910;2022-11-02T09:38:16;100726.75;;;22.30;69.53
11523;BME280;40093;43.224;27.910;2022-11-02T09:40:45;100721.38;;;22.48;68.13
11523;BME280;40093;43.224;27.910;2022-11-02T09:43:19;100701.75;;;22.48;67.11
11523;BME280;40093;43.224;27.910;2022-11-02T09:45:54;100712.72;;;22.55;66.33
11523;BME280;40093;43.224;27.910;2022-11-02T09:48:26;100709.13;;;22.67;66.27
11523;BME280;40093;43.224;27.910;2022-11-02T09:50:57;100704.84;;;22.63;64.65
11523;BME280;40093;43.224;27.910;2022-11-02T09:53:35;100704.84;;;22.75;64.22
11523;BME280;40093;43.224;27.910;2022-11-02T09:56:05;100696.53;;;22.72;64.03
11523;BME280;40093;43.224;27.910;2022-11-02T09:58:35;100695.63;;;22.75;63.81
11523;BME280;40093;43.224;27.910;2022-11-02T10:01:10;100680.44;;;22.85;64.12
11523;BME280;40093;43.224;27.910;2022-11-02T10:03:51;100684.38;;;23.08;63.48
11523;BME280;40093;43.224;27.910;2022-11-02T10:06:24;100680.53;;;23.15;62.98
11523;BME280;40093;43.224;27.910;2022-11-02T10:08:58;100681.44;;;23.12;62.17
11523;BME280;40093;43.224;27.910;2022-11-02T10:11:41;100678.31;;;23.10;61.68
11523;BME280;40093;43.224;27.910;2022-11-02T10:14:14;100668.94;;;23.25;61.29
11523;BME280;40093;43.224;27.910;2022-11-02T10:16:47;100665.00;;;23.23;61.23
11523;BME280;40093;43.224;27.910;2022-11-02T10:19:19;100655.22;;;23.27;60.23
11523;BME280;40093;43.224;27.910;2022-11-02T10:21:48;100655.97;;;23.49;59.84
11523;BME280;40093;43.224;27.910;2022-11-02T10:24:22;100649.84;;;23.42;58.39
11523;BME280;40093;43.224;27.910;2022-11-02T10:26:53;100654.66;;;23.41;58.73
11523;BME280;40093;43.224;27.910;2022-11-02T10:29:29;100640.69;;;23.50;58.42
11523;BME280;40093;43.224;27.910;2022-11-02T10:32:00;100638.06;;;23.56;58.30
11523;BME280;40093;43.224;27.910;2022-11-02T10:34:28;100635.28;;;23.65;58.12
11523;BME280;40093;43.224;27.910;2022-11-02T10:37:09;100630.66;;;23.71;58.18
11523;BME280;40093;43.224;27.910;2022-11-02T10:39:48;100623.84;;;23.90;58.00
11523;BME280;40093;43.224;27.910;2022-11-02T10:42:42;100629.88;;;24.10;57.24
11523;BME280;40093;43.224;27.910;2022-11-02T10:45:29;100616.31;;;24.17;56.76
11523;BME280;40093;43.224;27.910;2022-11-02T10:48:02;100618.22;;;24.29;56.64
11523;BME280;40093;43.224;27.910;2022-11-02T10:50:44;100617.72;;;24.31;56.19
11523;BME280;40093;43.224;27.910;2022-11-02T10:53:13;100593.66;;;24.12;55.58
11523;BME280;40093;43.224;27.910;2022-11-02T10:55:50;100608.94;;;24.20;55.04
11523;BME280;40093;43.224;27.910;2022-11-02T10:58:21;100615.56;;;24.35;55.05
11523;BME280;40093;43.224;27.910;2022-11-02T11:00:48;100607.75;;;24.39;55.45
11523;BME280;40093;43.224;27.910;2022-11-02T11:03:17;100608.53;;;24.39;54.68
11523;BME280;40093;43.224;27.910;2022-11-02T11:05:57;100599.63;;;24.50;54.12
11523;BME280;40093;43.224;27.910;2022-11-02T11:08:29;100600.56;;;24.47;54.04
11523;BME280;40093;43.224;27.910;2022-11-02T11:11:14;100588.09;;;24.57;54.00
11523;BME280;40093;43.224;27.910;2022-11-02T11:13:45;100594.34;;;24.61;53.04
11523;BME280;40093;43.224;27.910;2022-11-02T11:16:18;100597.63;;;24.77;53.31
11523;BME280;40093;43.224;27.910;2022-11-02T11:18:49;100587.47;;;24.89;52.34
11523;BME280;40093;43.224;27.910;2022-11-02T11:21:17;100588.38;;;24.95;51.94
11523;BME280;40093;43.224;27.910;2022-11-02T11:23:44;100581.81;;;24.98;52.23
11523;BME280;40093;43.224;27.910;2022-11-02T11:26:26;100571.47;;;25.04;51.98
11523;BME280;40093;43.224;27.910;2022-11-02T11:28:54;100580.22;;;25.06;51.96
11523;BME280;40093;43.224;27.910;2022-11-02T11:31:22;100574.41;;;25.09;51.75
11523;BME280;40093;43.224;27.910;2022-11-02T11:33:51;100579.44;;;25.23;51.38
11523;BME280;40093;43.224;27.910;2022-11-02T11:36:24;100563.72;;;25.40;51.33
11523;BME280;40093;43.224;27.910;2022-11-02T11:38:53;100572.97;;;25.41;51.35
11523;BME280;40093;43.224;27.910;2022-11-02T11:41:23;100562.22;;;25.63;50.81
11523;BME280;40093;43.224;27.910;2022-11-02T11:43:51;100562.19;;;25.72;50.41
11523;BME280;40093;43.224;27.910;2022-11-02T11:46:18;100555.88;;;25.77;49.91
11523;BME280;40093;43.224;27.910;2022-11-02T11:48:48;100551.88;;;25.60;50.26
11523;BME280;40093;43.224;27.910;2022-11-02T11:51:25;100552.94;;;25.71;49.99
11523;BME280;40093;43.224;27.910;2022-11-02T11:54:19;100549.03;;;25.69;49.58
11523;BME280;40093;43.224;27.910;2022-11-02T11:56:49;100547.00;;;25.69;49.17
11523;BME280;40093;43.224;27.910;2022-11-02T11:59:23;100538.41;;;25.64;49.54
11523;BME280;40093;43.224;27.910;2022-11-02T12:01:53;100543.06;;;25.76;48.48
11523;BME280;40093;43.224;27.910;2022-11-02T12:04:29;100538.91;;;25.85;47.97
11523;BME280;40093;43.224;27.910;2022-11-02T12:07:18;100538.47;;;25.87;47.51
11523;BME280;40093;43.224;27.910;2022-11-02T12:09:55;100530.78;;;25.88;47.32
11523;BME280;40093;43.224;27.910;2022-11-02T12:12:33;100529.00;;;25.99;47.19
11523;BME280;40093;43.224;27.910;2022-11-02T12:15:14;100523.47;;;26.04;46.73
11523;BME280;40093;43.224;27.910;2022-11-02T12:17:52;100523.53;;;25.95;45.81
11523;BME280;40093;43.224;27.910;2022-11-02T12:20:44;100516.03;;;25.92;45.99
11523;BME280;40093;43.224;27.910;2022-11-02T12:23:29;100511.84;;;25.88;45.40
11523;BME280;40093;43.224;27.910;2022-11-02T12:26:13;100519.97;;;25.86;45.77
11523;BME280;40093;43.224;27.910;2022-11-02T12:29:01;100516.03;;;25.92;45.46
11523;BME280;40093;43.224;27.910;2022-11-02T12:31:34;100511.97;;;25.93;44.95
11523;BME280;40093;43.224;27.910;2022-11-02T12:34:21;100510.59;;;25.89;44.69
11523;BME280;40093;43.224;27.910;2022-11-02T12:37:03;100514.00;;;25.93;44.70
11523;BME280;40093;43.224;27.910;2022-11-02T12:39:46;100507.22;;;25.99;44.72
11523;BME280;40093;43.224;27.910;2022-11-02T12:42:25;100510.66;;;26.03;44.56
11523;BME280;40093;43.224;27.910;2022-11-02T12:45:16;100509.66;;;26.06;43.66
11523;BME280;40093;43.224;27.910;2022-11-02T12:47:54;100503.75;;;26.04;43.82
11523;BME280;40093;43.224;27.910;2022-11-02T12:50:43;100501.69;;;26.05;44.30